sensor_id;sensor_type;location;lat;lon;timestamp;temperature;humidity
51914;DHT22;37940;53.002;6.930;2023-01-10T00:01:36;4.20;99.90
51914;DHT22;37940;53.002;6.930;2023-01-10T00:04:02;4.20;99.90
51914;DHT22;37940;53.002;6.930;2023-01-10T00:06:28;4.10;99.90
51914;DHT22;37940;53.002;6.930;2023-01-10T00:08:54;4.10;99.90
51914;DHT22;37940;53.002;6.930;2023-01-10T00:11:22;4.00;99.90
51914;DHT22;37940;53.002;6.930;2023-01-10T00:14:06;4.00;99.90
51914;DHT22;37940;53.002;6.930;2023-01-10T00:16:32;3.90;99.90
51914;DHT22;37940;53.002;6.930;2023-01-10T00:18:58;3.90;99.90
51914;DHT22;37940;53.002;6.930;2023-01-10T00:21:24;3.90;99.90
51914;DHT22;37940;53.002;6.930;2023-01-10T00:23:49;3.80;99.90
51914;DHT22;37940;53.002;6.930;2023-01-10T00:26:15;3.80;99.90
51914;DHT22;37940;53.002;6.930;2023-01-10T00:28:41;3.80;99.90
51914;DHT22;37940;53.002;6.930;2023-01-10T00:31:08;3.70;99.90
51914;DHT22;37940;53.002;6.930;2023-01-10T00:33:36;3.70;99.90
51914;DHT22;37940;53.002;6.930;2023-01-10T00:36:04;3.70;99.90
51914;DHT22;37940;53.002;6.930;2023-01-10T00:38:31;3.70;99.90
51914;DHT22;37940;53.002;6.930;2023-01-10T00:40:58;3.60;99.90
51914;DHT22;37940;53.002;6.930;2023-01-10T00:43:23;3.60;99.90
51914;DHT22;37940;53.002;6.930;2023-01-10T00:46:08;3.60;99.90
51914;DHT22;37940;53.002;6.930;2023-01-10T00:48:34;3.60;99.90
51914;DHT22;37940;53.002;6.930;2023-01-10T00:51:00;3.70;99.90
51914;DHT22;37940;53.002;6.930;2023-01-10T00:53:26;3.60;99.90
51914;DHT22;37940;53.002;6.930;2023-01-10T00:55:55;3.70;99.90
51914;DHT22;37940;53.002;6.930;2023-01-10T00:58:21;3.70;99.90
51914;DHT22;37940;53.002;6.930;2023-01-10T01:00:48;3.70;99.90
51914;DHT22;37940;53.002;6.930;2023-01-10T01:03:15;3.70;99.90
51914;DHT22;37940;53.002;6.930;2023-01-10T01:05:42;3.80;99.90
51914;DHT22;37940;53.002;6.930;2023-01-10T01:08:09;3.80;99.90
51914;DHT22;37940;53.002;6.930;2023-01-10T01:10:36;3.80;99.90
51914;DHT22;37940;53.002;6.930;2023-01-10T01:13:08;3.80;99.90
51914;DHT22;37940;53.002;6.930;2023-01-10T01:15:34;3.80;99.90
51914;DHT22;37940;53.002;6.930;2023-01-10T01:18:00;3.80;99.90
51914;DHT22;37940;53.002;6.930;2023-01-10T01:20:27;3.80;99.90
51914;DHT22;37940;53.002;6.930;2023-01-10T01:22:53;3.80;99.90
51914;DHT22;37940;53.002;6.930;2023-01-10T01:25:19;3.90;99.90
51914;DHT22;37940;53.002;6.930;2023-01-10T01:27:45;3.90;99.90
51914;DHT22;37940;53.002;6.930;2023-01-10T01:30:11;3.90;99.90
51914;DHT22;37940;53.002;6.930;2023-01-10T01:32:37;3.80;99.90
51914;DHT22;37940;53.002;6.930;2023-01-10T01:35:04;3.80;99.90
51914;DHT22;37940;53.002;6.930;2023-01-10T01:37:30;3.80;99.90
51914;DHT22;37940;53.002;6.930;2023-01-10T01:39:56;3.80;99.90
51914;DHT22;37940;53.002;6.930;2023-01-10T01:42:34;3.80;99.90
51914;DHT22;37940;53.002;6.930;2023-01-10T01:47:52;3.80;99.90
51914;DHT22;37940;53.002;6.930;2023-01-10T01:50:23;3.90;99.90
51914;DHT22;37940;53.002;6.930;2023-01-10T01:52:54;3.90;99.90
51914;DHT22;37940;53.002;6.930;2023-01-10T01:55:21;4.00;99.90
51914;DHT22;37940;53.002;6.930;2023-01-10T01:57:50;4.00;99.90
51914;DHT22;37940;53.002;6.930;2023-01-10T02:00:17;4.10;99.90
51914;DHT22;37940;53.002;6.930;2023-01-10T02:02:50;4.10;99.90
51914;DHT22;37940;53.002;6.930;2023-01-10T02:05:18;4.00;99.90
51914;DHT22;37940;53.002;6.930;2023-01-10T02:07:51;4.00;99.90
51914;DHT22;37940;53.002;6.930;2023-01-10T02:10:50;4.00;99.90
51914;DHT22;37940;53.002;6.930;2023-01-10T02:13:21;4.00;99.90
51914;DHT22;37940;53.002;6.930;2023-01-10T02:15:48;3.90;99.90
51914;DHT22;37940;53.002;6.930;2023-01-10T02:18:14;3.90;99.90
51914;DHT22;37940;53.002;6.930;2023-01-10T02:21:01;3.90;99.90
51914;DHT22;37940;53.002;6.930;2023-01-10T02:24:24;3.90;99.90
51914;DHT22;37940;53.002;6.930;2023-01-10T02:32:14;3.80;99.90
51914;DHT22;37940;53.002;6.930;2023-01-10T02:40:28;3.60;99.90
51914;DHT22;37940;53.002;6.930;2023-01-10T02:43:16;3.60;99.90
51914;DHT22;37940;53.002;6.930;2023-01-10T02:45:48;4.00;99.90
51914;DHT22;37940;53.002;6.930;2023-01-10T02:48:16;3.50;99.90
51914;DHT22;37940;53.002;6.930;2023-01-10T02:53:20;3.50;99.90
51914;DHT22;37940;53.002;6.930;2023-01-10T03:01:43;3.60;99.90
51914;DHT22;37940;53.002;6.930;2023-01-10T03:04:22;3.60;99.90
51914;DHT22;37940;53.002;6.930;2023-01-10T03:07:19;3.50;99.90
51914;DHT22;37940;53.002;6.930;2023-01-10T03:10:11;3.40;99.90
51914;DHT22;37940;53.002;6.930;2023-01-10T03:15:19;3.40;99.90
51914;DHT22;37940;53.002;6.930;2023-01-10T03:17:50;3.40;99.90
51914;DHT22;37940;53.002;6.930;2023-01-10T03:20:20;3.40;99.90
51914;DHT22;37940;53.002;6.930;2023-01-10T03:22:46;3.40;99.90
51914;DHT22;37940;53.002;6.930;2023-01-10T03:25:14;3.50;99.90
51914;DHT22;37940;53.002;6.930;2023-01-10T03:28:04;3.60;99.90
51914;DHT22;37940;53.002;6.930;2023-01-10T03:30:48;3.70;99.90
51914;DHT22;37940;53.002;6.930;2023-01-10T03:33:17;3.80;99.90
51914;DHT22;37940;53.002;6.930;2023-01-10T03:36:06;3.80;99.90
51914;DHT22;37940;53.002;6.930;2023-01-10T03:38:55;3.90;99.90
51914;DHT22;37940;53.002;6.930;2023-01-10T03:44:26;3.90;99.90
51914;DHT22;37940;53.002;6.930;2023-01-10T03:49:39;3.80;99.90
51914;DHT22;37940;53.002;6.930;2023-01-10T03:52:09;3.80;99.90
51914;DHT22;37940;53.002;6.930;2023-01-10T03:54:35;3.80;99.90
51914;DHT22;37940;53.002;6.930;2023-01-10T03:57:01;3.90;99.90
51914;DHT22;37940;53.002;6.930;2023-01-10T03:59:28;3.80;99.90
51914;DHT22;37940;53.002;6.930;2023-01-10T04:01:55;3.90;99.90
51914;DHT22;37940;53.002;6.930;2023-01-10T04:04:21;3.90;99.90
51914;DHT22;37940;53.002;6.930;2023-01-10T04:06:46;3.90;99.90
51914;DHT22;37940;53.002;6.930;2023-01-10T04:09:13;4.00;99.90
51914;DHT22;37940;53.002;6.930;2023-01-10T04:11:39;4.00;99.90
51914;DHT22;37940;53.002;6.930;2023-01-10T04:14:05;4.10;99.90
51914;DHT22;37940;53.002;6.930;2023-01-10T04:16:30;4.10;99.90
51914;DHT22;37940;53.002;6.930;2023-01-10T04:18:56;4.20;99.90
51914;DHT22;37940;53.002;6.930;2023-01-10T04:21:22;4.20;99.90
51914;DHT22;37940;53.002;6.930;2023-01-10T04:23:47;4.30;99.90
51914;DHT22;37940;53.002;6.930;2023-01-10T04:26:13;4.30;99.90
51914;DHT22;37940;53.002;6.930;2023-01-10T04:28:39;4.20;99.90
51914;DHT22;37940;53.002;6.930;2023-01-10T04:31:05;4.20;99.90
51914;DHT22;37940;53.002;6.930;2023-01-10T04:33:31;4.10;99.90
51914;DHT22;37940;53.002;6.930;2023-01-10T04:35:56;4.10;99.90
51914;DHT22;37940;53.002;6.930;2023-01-10T04:38:22;4.10;99.90
51914;DHT22;37940;53.002;6.930;2023-01-10T04:40:53;4.00;99.90
51914;DHT22;37940;53.002;6.930;2023-01-10T04:43:19;4.00;99.90
51914;DHT22;37940;53.002;6.930;2023-01-10T04:45:45;4.00;99.90
51914;DHT22;37940;53.002;6.930;2023-01-10T04:48:11;3.90;99.90
51914;DHT22;37940;53.002;6.930;2023-01-10T04:50:36;3.90;99.90
51914;DHT22;37940;53.002;6.930;2023-01-10T04:53:02;3.80;99.90
51914;DHT22;37940;53.002;6.930;2023-01-10T04:55:28;3.80;99.90
51914;DHT22;37940;53.002;6.930;2023-01-10T04:57:53;3.80;99.90
51914;DHT22;37940;53.002;6.930;2023-01-10T05:00:19;3.90;99.90
51914;DHT22;37940;53.002;6.930;2023-01-10T05:02:45;3.90;99.90
51914;DHT22;37940;53.002;6.930;2023-01-10T05:05:12;3.90;99.90
51914;DHT22;37940;53.002;6.930;2023-01-10T05:07:38;3.80;99.90
51914;DHT22;37940;53.002;6.930;2023-01-10T05:10:05;3.80;99.90
51914;DHT22;37940;53.002;6.930;2023-01-10T05:12:33;3.80;99.90
51914;DHT22;37940;53.002;6.930;2023-01-10T05:14:59;3.80;99.90
51914;DHT22;37940;53.002;6.930;2023-01-10T05:17:25;3.90;99.90
51914;DHT22;37940;53.002;6.930;2023-01-10T05:19:51;3.90;99.90
51914;DHT22;37940;53.002;6.930;2023-01-10T05:22:17;3.90;99.90
51914;DHT22;37940;53.002;6.930;2023-01-10T05:24:42;3.90;99.90
51914;DHT22;37940;53.002;6.930;2023-01-10T05:27:08;3.90;99.90
51914;DHT22;37940;53.002;6.930;2023-01-10T05:29:34;3.90;99.90
51914;DHT22;37940;53.002;6.930;2023-01-10T05:32:00;3.90;99.90
51914;DHT22;37940;53.002;6.930;2023-01-10T05:34:26;3.90;99.90
51914;DHT22;37940;53.002;6.930;2023-01-10T05:36:51;3.90;99.90
51914;DHT22;37940;53.002;6.930;2023-01-10T05:39:17;3.90;99.90
51914;DHT22;37940;53.002;6.930;2023-01-10T05:41:43;4.00;99.90
51914;DHT22;37940;53.002;6.930;2023-01-10T05:44:09;4.00;99.90
51914;DHT22;37940;53.002;6.930;2023-01-10T05:46:35;4.10;99.90
51914;DHT22;37940;53.002;6.930;2023-01-10T05:49:01;4.20;99.90
51914;DHT22;37940;53.002;6.930;2023-01-10T05:51:26;4.20;99.90
51914;DHT22;37940;53.002;6.930;2023-01-10T05:53:52;4.30;99.90
51914;DHT22;37940;53.002;6.930;2023-01-10T05:56:18;4.30;99.90
51914;DHT22;37940;53.002;6.930;2023-01-10T05:58:44;4.40;99.90
51914;DHT22;37940;53.002;6.930;2023-01-10T06:01:09;4.50;99.90
51914;DHT22;37940;53.002;6.930;2023-01-10T06:03:35;4.50;99.90
51914;DHT22;37940;53.002;6.930;2023-01-10T06:06:02;4.70;99.90
51914;DHT22;37940;53.002;6.930;2023-01-10T06:08:28;4.70;99.90
51914;DHT22;37940;53.002;6.930;2023-01-10T06:10:54;4.70;99.90
51914;DHT22;37940;53.002;6.930;2023-01-10T06:13:20;4.70;99.90
51914;DHT22;37940;53.002;6.930;2023-01-10T06:15:46;4.80;99.90
51914;DHT22;37940;53.002;6.930;2023-01-10T06:18:13;4.80;99.90
51914;DHT22;37940;53.002;6.930;2023-01-10T06:20:43;4.80;99.90
51914;DHT22;37940;53.002;6.930;2023-01-10T06:23:09;4.80;99.90
51914;DHT22;37940;53.002;6.930;2023-01-10T06:25:36;4.80;99.90
51914;DHT22;37940;53.002;6.930;2023-01-10T06:28:05;4.80;99.90
51914;DHT22;37940;53.002;6.930;2023-01-10T06:30:31;4.90;99.90
51914;DHT22;37940;53.002;6.930;2023-01-10T06:33:05;4.90;99.90
51914;DHT22;37940;53.002;6.930;2023-01-10T06:35:32;4.90;99.90
51914;DHT22;37940;53.002;6.930;2023-01-10T06:37:58;4.90;99.90
51914;DHT22;37940;53.002;6.930;2023-01-10T06:40:25;4.80;99.90
51914;DHT22;37940;53.002;6.930;2023-01-10T06:42:51;4.80;99.90
51914;DHT22;37940;53.002;6.930;2023-01-10T06:45:17;4.70;99.90
51914;DHT22;37940;53.002;6.930;2023-01-10T06:47:43;4.70;99.90
51914;DHT22;37940;53.002;6.930;2023-01-10T06:50:09;4.70;99.90
51914;DHT22;37940;53.002;6.930;2023-01-10T06:52:36;4.70;99.90
51914;DHT22;37940;53.002;6.930;2023-01-10T06:55:03;4.60;99.90
51914;DHT22;37940;53.002;6.930;2023-01-10T06:57:28;4.60;99.90
51914;DHT22;37940;53.002;6.930;2023-01-10T06:59:54;4.60;99.90
51914;DHT22;37940;53.002;6.930;2023-01-10T07:02:20;4.60;99.90
51914;DHT22;37940;53.002;6.930;2023-01-10T07:04:47;4.60;99.90
51914;DHT22;37940;53.002;6.930;2023-01-10T07:07:13;4.60;99.90
51914;DHT22;37940;53.002;6.930;2023-01-10T07:09:39;4.60;99.90
51914;DHT22;37940;53.002;6.930;2023-01-10T07:12:05;4.50;99.90
51914;DHT22;37940;53.002;6.930;2023-01-10T07:14:31;4.50;99.90
51914;DHT22;37940;53.002;6.930;2023-01-10T07:16:57;4.50;99.90
51914;DHT22;37940;53.002;6.930;2023-01-10T07:19:22;4.50;99.90
51914;DHT22;37940;53.002;6.930;2023-01-10T07:21:48;4.50;99.90
51914;DHT22;37940;53.002;6.930;2023-01-10T07:24:14;4.50;99.90
51914;DHT22;37940;53.002;6.930;2023-01-10T07:26:40;4.60;99.90
51914;DHT22;37940;53.002;6.930;2023-01-10T07:29:06;4.60;99.90
51914;DHT22;37940;53.002;6.930;2023-01-10T07:31:32;4.70;99.90
51914;DHT22;37940;53.002;6.930;2023-01-10T07:33:58;4.70;99.90
51914;DHT22;37940;53.002;6.930;2023-01-10T07:36:23;4.80;99.90
51914;DHT22;37940;53.002;6.930;2023-01-10T07:38:49;4.80;99.90
51914;DHT22;37940;53.002;6.930;2023-01-10T07:41:15;4.80;99.90
51914;DHT22;37940;53.002;6.930;2023-01-10T07:43:41;4.90;99.90
51914;DHT22;37940;53.002;6.930;2023-01-10T07:46:06;4.90;99.90
51914;DHT22;37940;53.002;6.930;2023-01-10T07:48:34;4.90;99.90
51914;DHT22;37940;53.002;6.930;2023-01-10T07:51:01;4.90;99.90
51914;DHT22;37940;53.002;6.930;2023-01-10T07:53:28;4.90;99.90
51914;DHT22;37940;53.002;6.930;2023-01-10T07:55:57;5.00;99.90
51914;DHT22;37940;53.002;6.930;2023-01-10T07:58:23;5.00;99.90
51914;DHT22;37940;53.002;6.930;2023-01-10T08:00:49;5.00;99.90
51914;DHT22;37940;53.002;6.930;2023-01-10T08:03:16;5.00;99.90
51914;DHT22;37940;53.002;6.930;2023-01-10T08:05:43;5.00;99.90
51914;DHT22;37940;53.002;6.930;2023-01-10T08:08:10;5.10;99.90
51914;DHT22;37940;53.002;6.930;2023-01-10T08:10:37;5.10;99.90
51914;DHT22;37940;53.002;6.930;2023-01-10T08:13:04;5.10;99.90
51914;DHT22;37940;53.002;6.930;2023-01-10T08:15:30;5.10;99.90
51914;DHT22;37940;53.002;6.930;2023-01-10T08:18:00;5.20;99.90
51914;DHT22;37940;53.002;6.930;2023-01-10T08:20:27;5.10;99.90
51914;DHT22;37940;53.002;6.930;2023-01-10T08:22:55;5.20;99.90
51914;DHT22;37940;53.002;6.930;2023-01-10T08:25:21;5.20;99.90
51914;DHT22;37940;53.002;6.930;2023-01-10T08:27:47;5.20;99.90
51914;DHT22;37940;53.002;6.930;2023-01-10T08:30:13;5.50;99.90
51914;DHT22;37940;53.002;6.930;2023-01-10T08:32:39;5.30;99.90
51914;DHT22;37940;53.002;6.930;2023-01-10T08:35:05;5.30;99.90
51914;DHT22;37940;53.002;6.930;2023-01-10T08:37:31;5.30;99.90
51914;DHT22;37940;53.002;6.930;2023-01-10T08:40:00;5.40;99.90
51914;DHT22;37940;53.002;6.930;2023-01-10T08:42:26;5.50;99.90
51914;DHT22;37940;53.002;6.930;2023-01-10T08:44:52;5.50;99.90
51914;DHT22;37940;53.002;6.930;2023-01-10T08:47:19;5.60;99.90
51914;DHT22;37940;53.002;6.930;2023-01-10T08:49:44;5.60;99.90
51914;DHT22;37940;53.002;6.930;2023-01-10T08:52:12;5.60;99.90
51914;DHT22;37940;53.002;6.930;2023-01-10T08:54:37;5.60;99.90
51914;DHT22;37940;53.002;6.930;2023-01-10T08:57:03;5.60;99.90
51914;DHT22;37940;53.002;6.930;2023-01-10T08:59:29;5.60;99.90
51914;DHT22;37940;53.002;6.930;2023-01-10T09:01:55;5.60;99.90
51914;DHT22;37940;53.002;6.930;2023-01-10T09:04:23;5.60;99.90
51914;DHT22;37940;53.002;6.930;2023-01-10T09:06:49;5.60;99.90
51914;DHT22;37940;53.002;6.930;2023-01-10T09:09:15;5.50;99.90
51914;DHT22;37940;53.002;6.930;2023-01-10T09:11:41;5.50;99.90
51914;DHT22;37940;53.002;6.930;2023-01-10T09:14:06;5.50;99.90
51914;DHT22;37940;53.002;6.930;2023-01-10T09:16:32;5.60;99.90
51914;DHT22;37940;53.002;6.930;2023-01-10T09:18:58;5.60;99.90
51914;DHT22;37940;53.002;6.930;2023-01-10T09:21:25;5.60;99.90
51914;DHT22;37940;53.002;6.930;2023-01-10T09:23:51;5.70;99.90
51914;DHT22;37940;53.002;6.930;2023-01-10T09:26:17;5.70;99.90
51914;DHT22;37940;53.002;6.930;2023-01-10T09:28:43;5.80;99.90
51914;DHT22;37940;53.002;6.930;2023-01-10T09:31:09;5.80;99.90
51914;DHT22;37940;53.002;6.930;2023-01-10T09:33:36;5.90;99.90
51914;DHT22;37940;53.002;6.930;2023-01-10T09:36:02;5.90;99.90
51914;DHT22;37940;53.002;6.930;2023-01-10T09:38:27;6.00;99.90
51914;DHT22;37940;53.002;6.930;2023-01-10T09:44:04;6.00;99.90
51914;DHT22;37940;53.002;6.930;2023-01-10T09:52:03;5.90;99.90
51914;DHT22;37940;53.002;6.930;2023-01-10T09:54:41;5.90;99.90
51914;DHT22;37940;53.002;6.930;2023-01-10T09:57:17;6.00;99.90
51914;DHT22;37940;53.002;6.930;2023-01-10T09:59:44;6.00;99.90
51914;DHT22;37940;53.002;6.930;2023-01-10T10:02:38;6.10;99.90
51914;DHT22;37940;53.002;6.930;2023-01-10T10:05:23;6.10;99.90
51914;DHT22;37940;53.002;6.930;2023-01-10T10:07:59;6.20;99.90
51914;DHT22;37940;53.002;6.930;2023-01-10T10:10:38;6.30;99.90
51914;DHT22;37940;53.002;6.930;2023-01-10T10:13:26;6.30;99.90
51914;DHT22;37940;53.002;6.930;2023-01-10T10:27:25;6.50;99.90
51914;DHT22;37940;53.002;6.930;2023-01-10T10:33:23;6.50;99.90
51914;DHT22;37940;53.002;6.930;2023-01-10T10:36:03;6.60;99.90
51914;DHT22;37940;53.002;6.930;2023-01-10T10:38:38;6.60;99.90
51914;DHT22;37940;53.002;6.930;2023-01-10T10:41:17;6.70;99.90
51914;DHT22;37940;53.002;6.930;2023-01-10T10:43:52;6.70;99.90
51914;DHT22;37940;53.002;6.930;2023-01-10T10:46:19;6.70;99.90
51914;DHT22;37940;53.002;6.930;2023-01-10T10:48:56;6.80;99.90
51914;DHT22;37940;53.002;6.930;2023-01-10T10:51:52;6.80;99.90
51914;DHT22;37940;53.002;6.930;2023-01-10T10:54:18;6.80;99.90
51914;DHT22;37940;53.002;6.930;2023-01-10T10:56:45;6.80;99.90
51914;DHT22;37940;53.002;6.930;2023-01-10T10:59:17;6.80;99.90
51914;DHT22;37940;53.002;6.930;2023-01-10T11:01:47;6.90;99.90
51914;DHT22;37940;53.002;6.930;2023-01-10T11:04:18;6.90;99.90
51914;DHT22;37940;53.002;6.930;2023-01-10T11:06:45;6.90;99.90
51914;DHT22;37940;53.002;6.930;2023-01-10T11:09:18;7.00;99.90
51914;DHT22;37940;53.002;6.930;2023-01-10T11:11:51;7.00;99.90
51914;DHT22;37940;53.002;6.930;2023-01-10T11:14:39;7.00;99.90
51914;DHT22;37940;53.002;6.930;2023-01-10T11:17:31;7.00;99.90
51914;DHT22;37940;53.002;6.930;2023-01-10T11:20:13;7.00;99.90
51914;DHT22;37940;53.002;6.930;2023-01-10T11:22:47;7.10;99.90
51914;DHT22;37940;53.002;6.930;2023-01-10T11:25:14;7.10;99.90
51914;DHT22;37940;53.002;6.930;2023-01-10T11:27:50;7.10;99.90
51914;DHT22;37940;53.002;6.930;2023-01-10T11:30:25;7.10;99.90
51914;DHT22;37940;53.002;6.930;2023-01-10T11:33:04;7.20;99.90
51914;DHT22;37940;53.002;6.930;2023-01-10T11:35:36;7.20;99.90
51914;DHT22;37940;53.002;6.930;2023-01-10T11:40:32;7.20;99.90
51914;DHT22;37940;53.002;6.930;2023-01-10T11:43:00;7.20;99.90
51914;DHT22;37940;53.002;6.930;2023-01-10T11:45:56;7.20;99.90
51914;DHT22;37940;53.002;6.930;2023-01-10T11:48:24;7.20;99.90
51914;DHT22;37940;53.002;6.930;2023-01-10T11:50:54;7.20;99.90
51914;DHT22;37940;53.002;6.930;2023-01-10T11:55:55;7.20;99.90
51914;DHT22;37940;53.002;6.930;2023-01-10T11:58:21;7.20;99.90
51914;DHT22;37940;53.002;6.930;2023-01-10T12:00:48;7.10;99.90
51914;DHT22;37940;53.002;6.930;2023-01-10T12:08:27;7.10;99.90
51914;DHT22;37940;53.002;6.930;2023-01-10T12:11:00;7.10;99.90
51914;DHT22;37940;53.002;6.930;2023-01-10T12:13:29;7.10;99.90
51914;DHT22;37940;53.002;6.930;2023-01-10T12:18:50;7.00;99.90
51914;DHT22;37940;53.002;6.930;2023-01-10T12:23:56;7.00;99.90
51914;DHT22;37940;53.002;6.930;2023-01-10T12:26:26;7.00;99.90
51914;DHT22;37940;53.002;6.930;2023-01-10T12:28:58;7.00;99.90
51914;DHT22;37940;53.002;6.930;2023-01-10T12:31:28;7.00;99.90
51914;DHT22;37940;53.002;6.930;2023-01-10T12:34:00;6.90;99.90
51914;DHT22;37940;53.002;6.930;2023-01-10T12:39:20;6.90;99.90
51914;DHT22;37940;53.002;6.930;2023-01-10T12:42:00;6.90;99.90
51914;DHT22;37940;53.002;6.930;2023-01-10T12:44:48;6.90;99.90
51914;DHT22;37940;53.002;6.930;2023-01-10T12:50:25;6.80;99.90
51914;DHT22;37940;53.002;6.930;2023-01-10T12:52:58;6.80;99.90
51914;DHT22;37940;53.002;6.930;2023-01-10T12:55:44;6.80;99.90
51914;DHT22;37940;53.002;6.930;2023-01-10T12:58:27;6.70;99.90
51914;DHT22;37940;53.002;6.930;2023-01-10T13:00:58;6.70;99.90
51914;DHT22;37940;53.002;6.930;2023-01-10T13:03:28;6.70;99.90
51914;DHT22;37940;53.002;6.930;2023-01-10T13:05:58;6.70;99.90
51914;DHT22;37940;53.002;6.930;2023-01-10T13:08:30;6.70;99.90
51914;DHT22;37940;53.002;6.930;2023-01-10T13:10:58;6.60;99.90
51914;DHT22;37940;53.002;6.930;2023-01-10T13:13:34;6.70;99.90
51914;DHT22;37940;53.002;6.930;2023-01-10T13:21:33;6.60;99.90
51914;DHT22;37940;53.002;6.930;2023-01-10T13:24:24;6.50;99.90
51914;DHT22;37940;53.002;6.930;2023-01-10T13:26:59;6.50;99.90
51914;DHT22;37940;53.002;6.930;2023-01-10T13:29:41;6.50;99.90
51914;DHT22;37940;53.002;6.930;2023-01-10T13:32:24;6.40;99.90
51914;DHT22;37940;53.002;6.930;2023-01-10T13:34:51;6.40;99.90
51914;DHT22;37940;53.002;6.930;2023-01-10T13:37:24;6.40;99.90
51914;DHT22;37940;53.002;6.930;2023-01-10T13:39:54;6.40;99.90
51914;DHT22;37940;53.002;6.930;2023-01-10T13:42:30;6.40;99.90
51914;DHT22;37940;53.002;6.930;2023-01-10T14:01:30;6.30;99.90
51914;DHT22;37940;53.002;6.930;2023-01-10T14:04:24;6.20;99.90
51914;DHT22;37940;53.002;6.930;2023-01-10T14:06:59;6.20;99.90
51914;DHT22;37940;53.002;6.930;2023-01-10T14:11:54;6.20;99.90
51914;DHT22;37940;53.002;6.930;2023-01-10T14:14:34;6.10;99.90
51914;DHT22;37940;53.002;6.930;2023-01-10T14:17:24;6.10;99.90
51914;DHT22;37940;53.002;6.930;2023-01-10T14:22:32;6.00;99.90
51914;DHT22;37940;53.002;6.930;2023-01-10T14:25:00;6.00;99.90
51914;DHT22;37940;53.002;6.930;2023-01-10T14:27:41;6.00;99.90
51914;DHT22;37940;53.002;6.930;2023-01-10T14:30:21;6.00;99.90
51914;DHT22;37940;53.002;6.930;2023-01-10T14:32:50;6.00;99.90
51914;DHT22;37940;53.002;6.930;2023-01-10T14:35:20;5.90;99.90
51914;DHT22;37940;53.002;6.930;2023-01-10T14:37:55;5.90;99.90
51914;DHT22;37940;53.002;6.930;2023-01-10T14:40:28;6.00;99.90
51914;DHT22;37940;53.002;6.930;2023-01-10T14:43:04;5.90;99.90
51914;DHT22;37940;53.002;6.930;2023-01-10T14:45:50;6.00;99.90
51914;DHT22;37940;53.002;6.930;2023-01-10T14:51:36;5.90;99.90
51914;DHT22;37940;53.002;6.930;2023-01-10T14:53:37;6.00;99.90
51914;DHT22;37940;53.002;6.930;2023-01-10T14:56:03;5.90;99.90
51914;DHT22;37940;53.002;6.930;2023-01-10T14:58:41;5.90;99.90
51914;DHT22;37940;53.002;6.930;2023-01-10T15:01:08;5.90;99.90
51914;DHT22;37940;53.002;6.930;2023-01-10T15:03:34;5.90;99.90
51914;DHT22;37940;53.002;6.930;2023-01-10T15:06:03;5.90;99.90
51914;DHT22;37940;53.002;6.930;2023-01-10T15:08:29;5.90;99.90
51914;DHT22;37940;53.002;6.930;2023-01-10T15:11:01;5.90;99.90
51914;DHT22;37940;53.002;6.930;2023-01-10T15:13:30;5.90;99.90
51914;DHT22;37940;53.002;6.930;2023-01-10T15:15:58;5.90;99.90
51914;DHT22;37940;53.002;6.930;2023-01-10T15:18:27;5.90;99.90
51914;DHT22;37940;53.002;6.930;2023-01-10T15:20:55;5.90;99.90
51914;DHT22;37940;53.002;6.930;2023-01-10T15:23:22;6.00;99.90
51914;DHT22;37940;53.002;6.930;2023-01-10T15:25:57;6.00;99.90
51914;DHT22;37940;53.002;6.930;2023-01-10T15:28:26;5.90;99.90
51914;DHT22;37940;53.002;6.930;2023-01-10T15:30:54;6.00;99.90
51914;DHT22;37940;53.002;6.930;2023-01-10T15:33:28;6.00;99.90
51914;DHT22;37940;53.002;6.930;2023-01-10T15:35:56;6.00;99.90
51914;DHT22;37940;53.002;6.930;2023-01-10T15:38:27;6.00;99.90
51914;DHT22;37940;53.002;6.930;2023-01-10T15:41:00;6.00;99.90
51914;DHT22;37940;53.002;6.930;2023-01-10T15:43:34;6.00;99.90
51914;DHT22;37940;53.002;6.930;2023-01-10T15:46:02;6.00;99.90
51914;DHT22;37940;53.002;6.930;2023-01-10T15:48:35;6.00;99.90
51914;DHT22;37940;53.002;6.930;2023-01-10T15:51:28;6.10;99.90
51914;DHT22;37940;53.002;6.930;2023-01-10T15:56:38;6.10;99.90
51914;DHT22;37940;53.002;6.930;2023-01-10T16:01:56;6.00;99.90
51914;DHT22;37940;53.002;6.930;2023-01-10T16:04:23;6.10;99.90
51914;DHT22;37940;53.002;6.930;2023-01-10T16:07:03;6.10;99.90
51914;DHT22;37940;53.002;6.930;2023-01-10T16:09:30;6.10;99.90
51914;DHT22;37940;53.002;6.930;2023-01-10T16:11:56;6.10;99.90
51914;DHT22;37940;53.002;6.930;2023-01-10T16:14:40;6.10;99.90
51914;DHT22;37940;53.002;6.930;2023-01-10T16:17:06;6.10;99.90
51914;DHT22;37940;53.002;6.930;2023-01-10T16:19:32;6.20;99.90
51914;DHT22;37940;53.002;6.930;2023-01-10T16:21:59;6.20;99.90
51914;DHT22;37940;53.002;6.930;2023-01-10T16:24:34;6.20;99.90
51914;DHT22;37940;53.002;6.930;2023-01-10T16:27:03;6.20;99.90
51914;DHT22;37940;53.002;6.930;2023-01-10T16:29:30;6.20;99.90
51914;DHT22;37940;53.002;6.930;2023-01-10T16:31:56;6.20;99.90
51914;DHT22;37940;53.002;6.930;2023-01-10T16:34:22;6.20;99.90
51914;DHT22;37940;53.002;6.930;2023-01-10T16:36:50;6.10;99.90
51914;DHT22;37940;53.002;6.930;2023-01-10T16:39:19;6.10;99.90
51914;DHT22;37940;53.002;6.930;2023-01-10T16:41:46;6.10;99.90
51914;DHT22;37940;53.002;6.930;2023-01-10T16:44:31;6.10;99.90
51914;DHT22;37940;53.002;6.930;2023-01-10T16:46:57;6.10;99.90
51914;DHT22;37940;53.002;6.930;2023-01-10T16:49:24;6.10;99.90
51914;DHT22;37940;53.002;6.930;2023-01-10T16:51:50;6.10;99.90
51914;DHT22;37940;53.002;6.930;2023-01-10T16:54:19;6.10;99.90
51914;DHT22;37940;53.002;6.930;2023-01-10T16:56:47;6.00;99.90
51914;DHT22;37940;53.002;6.930;2023-01-10T16:59:14;6.00;99.90
51914;DHT22;37940;53.002;6.930;2023-01-10T17:01:58;6.00;99.90
51914;DHT22;37940;53.002;6.930;2023-01-10T17:04:26;6.00;99.90
51914;DHT22;37940;53.002;6.930;2023-01-10T17:06:54;5.90;99.90
51914;DHT22;37940;53.002;6.930;2023-01-10T17:09:22;6.00;99.90
51914;DHT22;37940;53.002;6.930;2023-01-10T17:11:54;6.00;99.90
51914;DHT22;37940;53.002;6.930;2023-01-10T17:14:29;5.90;99.90
51914;DHT22;37940;53.002;6.930;2023-01-10T17:16:55;6.00;99.90
51914;DHT22;37940;53.002;6.930;2023-01-10T17:19:21;6.00;99.90
51914;DHT22;37940;53.002;6.930;2023-01-10T17:21:47;6.00;99.90
51914;DHT22;37940;53.002;6.930;2023-01-10T17:24:13;5.90;99.90
51914;DHT22;37940;53.002;6.930;2023-01-10T17:26:38;5.90;99.90
51914;DHT22;37940;53.002;6.930;2023-01-10T17:29:04;5.90;99.90
51914;DHT22;37940;53.002;6.930;2023-01-10T17:31:30;5.90;99.90
51914;DHT22;37940;53.002;6.930;2023-01-10T17:33:56;5.90;99.90
51914;DHT22;37940;53.002;6.930;2023-01-10T17:36:21;5.90;99.90
51914;DHT22;37940;53.002;6.930;2023-01-10T17:38:53;5.90;99.90
51914;DHT22;37940;53.002;6.930;2023-01-10T17:41:18;5.90;99.90
51914;DHT22;37940;53.002;6.930;2023-01-10T17:43:44;5.90;99.90
51914;DHT22;37940;53.002;6.930;2023-01-10T17:46:10;5.80;99.90
51914;DHT22;37940;53.002;6.930;2023-01-10T17:48:36;5.90;99.90
51914;DHT22;37940;53.002;6.930;2023-01-10T17:51:02;5.80;99.90
51914;DHT22;37940;53.002;6.930;2023-01-10T17:53:28;5.90;99.90